createdAt,value
2022-10-03T12:48:46.408Z,23.86
2022-10-03T12:52:26.765Z,24.88
2022-10-03T12:55:42.023Z,25.53
2022-10-03T12:58:47.428Z,26.19
2022-10-03T13:02:02.504Z,26.74
2022-10-03T13:05:10.390Z,27.27
2022-10-03T13:08:03.937Z,27.67
2022-10-03T13:10:55.882Z,28.00
2022-10-03T13:13:54.522Z,28.26
2022-10-03T13:16:39.938Z,28.49
2022-10-03T13:19:23.745Z,28.71
2022-10-03T13:22:07.093Z,28.88
2022-10-03T13:25:19.520Z,29.03
2022-10-03T13:28:13.550Z,29.17
2022-10-03T13:31:13.986Z,29.32
2022-10-03T13:33:50.987Z,29.41
2022-10-03T13:36:35.670Z,29.54
2022-10-03T13:39:12.051Z,29.63
2022-10-03T13:42:05.581Z,29.73
2022-10-03T13:44:55.626Z,29.80
2022-10-03T13:48:05.849Z,29.87
2022-10-03T13:51:09.304Z,29.95
2022-10-03T13:59:09.378Z,29.35
2022-10-03T14:01:43.280Z,28.72
2022-10-03T14:04:49.395Z,27.78
2022-10-03T14:07:46.459Z,26.91
2022-10-03T14:11:03.557Z,26.12
2022-10-03T14:13:47.525Z,25.59
2022-10-03T14:16:36.597Z,25.15
2022-10-03T14:19:41.072Z,24.72
2022-10-03T14:22:33.043Z,24.24
2022-10-03T14:25:35.741Z,23.84
2022-10-03T14:28:50.275Z,23.29
2022-10-03T14:31:34.837Z,23.23
2022-10-03T14:34:28.175Z,23.09
2022-10-03T14:37:15.863Z,22.98
2022-10-03T14:40:08.784Z,22.84
2022-10-03T14:43:03.217Z,22.68
2022-10-03T14:45:47.706Z,22.52
2022-10-03T14:48:50.270Z,22.40
2022-10-03T14:51:29.944Z,22.23
2022-10-03T14:54:09.262Z,22.13
2022-10-03T14:56:46.785Z,22.03
2022-10-03T14:59:35.433Z,21.95
2022-10-03T15:02:38.335Z,21.80
2022-10-03T15:05:32.427Z,21.75
2022-10-03T15:08:04.412Z,21.61
2022-10-03T15:10:33.184Z,21.55
2022-10-03T15:13:11.509Z,21.49
2022-10-03T15:15:42.283Z,21.33
2022-10-03T15:18:19.498Z,21.35
2022-10-03T15:20:51.457Z,21.23
2022-10-03T15:23:44.465Z,21.19
2022-10-03T15:26:21.244Z,21.14
2022-10-03T15:28:54.376Z,21.05
2022-10-03T15:31:33.369Z,21.02
2022-10-03T15:34:06.896Z,20.95
2022-10-03T15:36:43.733Z,20.85
2022-10-03T15:39:40.568Z,20.80
2022-10-03T15:42:29.718Z,20.75
2022-10-03T15:45:07.382Z,20.68
2022-10-03T15:47:42.069Z,20.65
2022-10-03T15:50:31.117Z,20.66
2022-10-03T15:53:38.593Z,20.63
2022-10-03T15:56:19.189Z,20.59
2022-10-03T15:58:58.326Z,20.58
2022-10-03T16:01:42.497Z,20.61
2022-10-03T16:04:55.954Z,20.55
2022-10-03T16:08:01.977Z,20.52
2022-10-03T16:10:41.396Z,20.51
2022-10-03T16:13:40.732Z,20.48
2022-10-03T16:16:42.616Z,20.46
2022-10-03T16:19:41.407Z,20.42
2022-10-03T16:22:30.670Z,20.39
2022-10-03T16:25:15.305Z,20.37
2022-10-03T16:28:14.706Z,20.32
2022-10-03T16:31:02.422Z,20.31
2022-10-03T16:33:38.699Z,20.25
2022-10-03T16:36:10.608Z,20.24
2022-10-03T16:38:52.788Z,20.29
2022-10-03T16:41:33.906Z,20.25
2022-10-03T16:44:18.398Z,20.17
2022-10-03T16:46:47.314Z,20.14
2022-10-03T16:49:58.708Z,20.12
2022-10-03T16:52:37.785Z,19.98
2022-10-03T16:55:16.021Z,20.00
2022-10-03T16:58:10.694Z,19.92
2022-10-03T17:01:21.993Z,19.68
2022-10-03T17:03:51.994Z,19.62
2022-10-03T17:06:36.101Z,19.58
2022-10-03T17:09:20.176Z,19.49
2022-10-03T17:12:01.120Z,19.37
2022-10-03T17:14:42.542Z,19.29
2022-10-03T17:17:47.110Z,19.14
2022-10-03T17:20:42.733Z,19.06
2022-10-03T17:23:28.683Z,19.04
2022-10-03T17:26:10.261Z,18.97
2022-10-03T17:28:44.985Z,18.87
2022-10-03T17:31:29.640Z,18.79
2022-10-03T17:34:38.508Z,18.63
2022-10-03T17:37:33.673Z,18.60
2022-10-03T17:40:47.761Z,18.45
2022-10-03T17:43:40.482Z,18.40
2022-10-03T17:46:30.373Z,18.38
2022-10-03T17:49:14.524Z,18.37
2022-10-03T17:51:49.446Z,18.31
2022-10-03T17:54:26.426Z,18.29
2022-10-03T17:57:14.215Z,18.21
2022-10-03T17:59:54.964Z,18.13
2022-10-03T18:02:35.262Z,18.07
2022-10-03T18:05:19.937Z,18.05
2022-10-03T18:07:52.989Z,17.92
2022-10-03T18:10:48.817Z,17.94
2022-10-03T18:13:25.315Z,17.92
2022-10-03T18:16:22.680Z,17.86
2022-10-03T18:19:34.915Z,17.77
2022-10-03T18:22:40.893Z,17.62
2022-10-03T18:29:37.896Z,17.42
2022-10-03T18:32:19.572Z,17.38
2022-10-03T18:35:36.709Z,17.25
2022-10-03T18:38:20.065Z,17.26
2022-10-03T18:40:59.045Z,17.23
2022-10-03T18:43:45.580Z,17.22
2022-10-03T18:46:31.438Z,17.19
2022-10-03T18:49:34.025Z,17.11
2022-10-03T18:52:43.253Z,17.07
2022-10-03T18:55:38.253Z,16.98
2022-10-03T18:58:58.323Z,16.95
2022-10-03T19:01:43.030Z,16.95
2022-10-03T19:04:21.169Z,16.94
2022-10-03T19:06:53.973Z,16.97
2022-10-03T19:09:27.727Z,17.00
2022-10-03T19:12:08.728Z,16.97
2022-10-03T19:15:01.618Z,16.94
2022-10-03T19:17:33.252Z,16.94
2022-10-03T19:20:23.597Z,16.97
2022-10-03T19:23:37.416Z,16.87
2022-10-03T19:26:23.922Z,16.77
2022-10-03T19:29:04.014Z,16.78
2022-10-03T19:32:15.510Z,16.72
2022-10-03T19:34:47.440Z,16.65
2022-10-03T19:37:45.504Z,16.60
2022-10-03T19:40:30.032Z,16.58
2022-10-03T19:43:33.391Z,16.49
2022-10-03T19:46:57.493Z,16.41
2022-10-03T19:50:04.194Z,16.37
2022-10-03T19:52:36.853Z,16.32
2022-10-03T19:55:22.370Z,16.31
2022-10-03T19:57:58.005Z,16.26
2022-10-03T20:00:31.746Z,16.20
2022-10-03T20:03:17.714Z,16.17
2022-10-03T20:06:01.708Z,16.11
2022-10-03T20:08:45.663Z,16.04
2022-10-03T20:11:40.225Z,16.00
2022-10-03T20:14:37.362Z,15.94
2022-10-03T20:17:20.085Z,15.97
2022-10-03T20:19:56.332Z,15.93
2022-10-03T20:22:28.837Z,15.97
2022-10-03T20:24:58.287Z,15.96
2022-10-03T20:27:35.834Z,16.00
2022-10-03T20:30:40.145Z,15.98
2022-10-03T20:33:15.993Z,15.92
2022-10-03T20:36:10.748Z,15.94
2022-10-03T20:39:07.793Z,15.89
2022-10-03T20:42:15.789Z,15.86
2022-10-03T20:44:55.598Z,15.79
2022-10-03T20:47:56.222Z,15.67
2022-10-03T20:50:32.419Z,15.66
2022-10-03T20:53:15.053Z,15.59
2022-10-03T20:56:07.400Z,15.56
2022-10-03T20:58:54.810Z,15.51
2022-10-03T21:01:28.962Z,15.43
2022-10-03T21:04:22.537Z,15.46
2022-10-03T21:07:13.159Z,15.40
2022-10-03T21:09:57.279Z,15.37
2022-10-03T21:12:34.655Z,15.28
2022-10-03T21:15:29.753Z,15.29
2022-10-03T21:17:58.986Z,15.26
2022-10-03T21:20:38.086Z,15.39
2022-10-03T21:23:24.400Z,15.39
2022-10-03T21:25:58.879Z,15.36
2022-10-03T21:28:32.797Z,15.36
2022-10-03T21:31:44.357Z,15.30
2022-10-03T21:34:30.458Z,15.27
2022-10-03T21:37:25.340Z,15.28
2022-10-03T21:40:26.049Z,15.22
2022-10-03T21:43:39.928Z,15.18
2022-10-03T21:46:27.148Z,15.11
2022-10-03T21:49:22.983Z,15.07
2022-10-03T21:52:05.472Z,15.06
2022-10-03T21:55:45.363Z,15.07
2022-10-03T21:58:21.207Z,15.05
2022-10-03T22:01:24.655Z,15.06
2022-10-03T22:04:21.776Z,14.99
2022-10-03T22:07:18.742Z,14.94
2022-10-03T22:09:56.172Z,14.95
2022-10-03T22:12:29.536Z,14.94
2022-10-03T22:15:09.374Z,15.01
2022-10-03T22:17:48.400Z,15.00
2022-10-03T22:20:29.874Z,15.04
2022-10-03T22:23:25.336Z,15.00
2022-10-03T22:26:24.353Z,14.86
2022-10-03T22:29:10.165Z,14.76
2022-10-03T22:32:06.101Z,14.67
2022-10-03T22:34:58.227Z,14.62
2022-10-03T22:37:27.257Z,14.52
2022-10-03T22:40:00.108Z,14.53
2022-10-03T22:42:34.397Z,14.45
2022-10-03T22:45:05.738Z,14.39
2022-10-03T22:47:36.265Z,14.34
2022-10-03T22:50:14.664Z,14.30
2022-10-03T22:52:49.213Z,14.31
2022-10-03T22:55:22.410Z,14.32
2022-10-03T22:57:55.057Z,14.28
2022-10-03T23:00:29.588Z,14.26
2022-10-03T23:03:31.071Z,14.29
2022-10-03T23:06:19.853Z,14.30
2022-10-03T23:09:04.240Z,14.33
2022-10-03T23:11:35.767Z,14.27
2022-10-03T23:14:18.471Z,14.24
2022-10-03T23:17:16.492Z,14.20
2022-10-03T23:20:26.372Z,14.11
2022-10-03T23:23:00.873Z,14.06
2022-10-03T23:26:01.088Z,14.06
2022-10-03T23:28:35.702Z,13.97
2022-10-03T23:31:05.766Z,14.00
2022-10-03T23:33:33.730Z,13.96
2022-10-03T23:36:18.015Z,13.96
2022-10-03T23:38:49.928Z,13.94
2022-10-03T23:41:36.488Z,13.97
2022-10-03T23:44:34.561Z,14.01
2022-10-03T23:47:06.500Z,13.99
2022-10-03T23:49:37.653Z,14.09
2022-10-03T23:52:11.167Z,14.13
2022-10-03T23:54:41.521Z,14.18
2022-10-03T23:57:09.729Z,14.13
2022-10-03T23:59:39.570Z,14.23
